createdAt,value
2018-03-22T00:01:27.426Z,2.13
2018-03-22T00:04:08.435Z,1.43
2018-03-22T00:06:36.940Z,1.87
2018-03-22T00:09:05.299Z,1.87
2018-03-22T00:11:33.620Z,2.63
2018-03-22T00:14:02.008Z,2.50
2018-03-22T00:16:31.058Z,1.40
2018-03-22T00:18:59.407Z,1.90
2018-03-22T00:21:27.742Z,1.70
2018-03-22T00:23:56.051Z,1.53
2018-03-22T00:26:25.299Z,2.80
2018-03-22T00:28:53.624Z,1.53
2018-03-22T00:31:24.896Z,3.40
2018-03-22T00:33:53.214Z,2.03
2018-03-22T00:36:21.590Z,1.60
2018-03-22T00:38:50.466Z,1.20
2018-03-22T00:41:18.814Z,1.27
2018-03-22T00:43:47.137Z,1.43
2018-03-22T00:46:15.474Z,1.30
2018-03-22T00:48:43.794Z,1.30
2018-03-22T00:51:12.209Z,1.73
2018-03-22T00:53:40.548Z,1.60
2018-03-22T00:56:08.910Z,1.97
2018-03-22T00:58:37.231Z,1.43
2018-03-22T01:01:05.590Z,2.27
2018-03-22T01:03:33.983Z,1.80
2018-03-22T01:06:02.337Z,2.43
2018-03-22T01:08:30.663Z,1.70
2018-03-22T01:10:59.057Z,1.60
2018-03-22T01:13:27.432Z,1.50
2018-03-22T01:15:55.782Z,1.30
2018-03-22T01:18:24.875Z,1.50
2018-03-22T01:20:53.216Z,2.47
2018-03-22T01:23:21.537Z,1.60
2018-03-22T01:25:50.428Z,4.87
2018-03-22T01:28:19.490Z,4.30
2018-03-22T01:30:47.830Z,1.97
2018-03-22T01:33:16.148Z,3.23
2018-03-22T01:35:44.447Z,2.73
2018-03-22T01:38:27.845Z,3.20
2018-03-22T01:40:56.222Z,1.50
2018-03-22T01:43:24.545Z,2.20
2018-03-22T01:45:52.879Z,3.03
2018-03-22T01:48:21.213Z,1.70
2018-03-22T01:50:49.598Z,2.43
2018-03-22T01:53:17.995Z,2.43
2018-03-22T01:55:46.312Z,1.73
2018-03-22T01:58:14.644Z,2.03
2018-03-22T02:00:49.444Z,1.77
2018-03-22T02:03:17.792Z,1.00
2018-03-22T02:05:46.367Z,3.13
2018-03-22T02:08:15.125Z,3.47
2018-03-22T02:10:43.470Z,1.73
2018-03-22T02:13:11.819Z,5.70
2018-03-22T02:15:40.155Z,1.43
2018-03-22T02:18:08.486Z,1.27
2018-03-22T02:20:36.812Z,1.47
2018-03-22T02:23:05.155Z,1.93
2018-03-22T02:25:33.473Z,1.73
2018-03-22T02:28:01.893Z,1.57
2018-03-22T02:30:30.956Z,1.40
2018-03-22T02:32:59.284Z,1.30
2018-03-22T02:35:28.371Z,2.90
2018-03-22T02:37:57.990Z,1.50
2018-03-22T02:40:26.299Z,1.87
2018-03-22T02:42:54.646Z,2.83
2018-03-22T02:45:23.019Z,1.10
2018-03-22T02:47:51.352Z,1.00
2018-03-22T02:50:20.086Z,1.17
2018-03-22T02:52:48.428Z,1.30
2018-03-22T02:55:16.762Z,1.63
2018-03-22T02:57:45.069Z,1.27
2018-03-22T03:00:13.412Z,1.67
2018-03-22T03:02:42.471Z,1.20
2018-03-22T03:05:10.816Z,3.20
2018-03-22T03:07:39.529Z,2.27
2018-03-22T03:10:07.908Z,2.37
2018-03-22T03:12:37.052Z,2.47
2018-03-22T03:15:05.377Z,1.77
2018-03-22T03:17:33.930Z,2.87
2018-03-22T03:20:03.162Z,1.40
2018-03-22T03:22:31.585Z,1.40
2018-03-22T03:24:59.919Z,3.40
2018-03-22T03:27:28.665Z,1.40
2018-03-22T03:29:57.001Z,4.43
2018-03-22T03:32:25.368Z,3.73
2018-03-22T03:34:53.706Z,2.10
2018-03-22T03:37:22.039Z,3.03
2018-03-22T03:39:50.387Z,1.30
2018-03-22T03:42:18.713Z,1.73
2018-03-22T03:44:47.051Z,4.97
2018-03-22T03:47:15.364Z,2.10
2018-03-22T03:49:43.710Z,4.10
2018-03-22T03:52:12.054Z,1.20
2018-03-22T03:54:40.398Z,1.47
2018-03-22T03:57:09.482Z,4.40
2018-03-22T03:59:38.072Z,1.27
2018-03-22T04:02:07.168Z,2.33
2018-03-22T04:04:36.084Z,4.80
2018-03-22T04:07:04.389Z,3.63
2018-03-22T04:09:32.739Z,1.27
2018-03-22T04:12:01.327Z,1.97
2018-03-22T04:14:29.634Z,2.07
2018-03-22T04:16:57.981Z,1.57
2018-03-22T04:19:26.296Z,1.10
2018-03-22T04:21:54.970Z,1.30
2018-03-22T04:24:23.277Z,1.73
2018-03-22T04:26:51.686Z,1.53
2018-03-22T04:29:19.996Z,1.30
2018-03-22T04:31:48.331Z,1.17
2018-03-22T04:34:16.805Z,1.10
2018-03-22T04:36:45.153Z,1.80
2018-03-22T04:39:13.470Z,1.23
2018-03-22T04:41:41.828Z,2.57
2018-03-22T04:44:10.142Z,1.40
2018-03-22T04:46:38.766Z,1.13
2018-03-22T04:49:07.419Z,2.60
2018-03-22T04:51:36.030Z,2.90
2018-03-22T04:54:05.423Z,3.80
2018-03-22T04:56:33.786Z,1.20
2018-03-22T04:59:02.780Z,2.40
2018-03-22T05:01:31.112Z,3.07
2018-03-22T05:03:59.426Z,2.03
2018-03-22T05:06:27.759Z,1.60
2018-03-22T05:08:56.062Z,2.30
2018-03-22T05:11:24.402Z,3.20
2018-03-22T05:13:52.731Z,2.47
2018-03-22T05:16:21.078Z,1.73
2018-03-22T05:18:49.458Z,3.80
2018-03-22T05:21:17.801Z,1.30
2018-03-22T05:23:46.118Z,3.10
2018-03-22T05:26:14.449Z,2.40
2018-03-22T05:28:42.773Z,1.73
2018-03-22T05:31:11.214Z,4.20
2018-03-22T05:33:39.523Z,1.20
2018-03-22T05:36:07.854Z,2.53
2018-03-22T05:38:36.174Z,1.13
2018-03-22T05:41:04.494Z,1.87
2018-03-22T05:43:32.858Z,1.70
2018-03-22T05:46:01.187Z,1.67
2018-03-22T05:48:29.522Z,2.57
2018-03-22T05:50:57.850Z,1.67
2018-03-22T05:53:26.174Z,1.43
2018-03-22T05:55:54.491Z,1.60
2018-03-22T05:58:22.830Z,1.03
2018-03-22T06:00:51.162Z,1.60
2018-03-22T06:03:20.262Z,1.20
2018-03-22T06:05:48.579Z,2.63
2018-03-22T06:08:16.982Z,2.70
2018-03-22T06:10:45.289Z,1.73
2018-03-22T06:13:13.631Z,1.53
2018-03-22T06:15:42.890Z,3.37
2018-03-22T06:18:12.415Z,3.47
2018-03-22T06:20:40.736Z,2.00
2018-03-22T06:23:09.070Z,3.53
2018-03-22T06:25:37.391Z,4.47
2018-03-22T06:31:19.928Z,4.47
2018-03-22T06:33:48.284Z,3.33
2018-03-22T06:36:17.367Z,6.73
2018-03-22T06:38:46.443Z,6.07
2018-03-22T06:41:14.754Z,3.07
2018-03-22T06:43:44.168Z,4.23
2018-03-22T06:46:12.505Z,3.37
2018-03-22T06:48:41.596Z,4.27
2018-03-22T06:51:09.905Z,3.00
2018-03-22T06:53:38.240Z,4.60
2018-03-22T06:56:06.582Z,3.57
2018-03-22T06:58:34.913Z,2.90
2018-03-22T07:01:03.988Z,3.10
2018-03-22T07:03:32.294Z,2.47
2018-03-22T07:06:00.632Z,4.90
2018-03-22T07:08:29.082Z,4.40
2018-03-22T07:10:57.431Z,1.30
2018-03-22T07:13:25.742Z,1.80
2018-03-22T07:15:54.095Z,2.60
2018-03-22T07:18:22.710Z,1.30
2018-03-22T07:20:51.033Z,2.70
2018-03-22T07:23:19.362Z,1.90
2018-03-22T07:25:47.702Z,5.00
2018-03-22T07:28:16.024Z,2.57
2018-03-22T07:30:45.838Z,1.67
2018-03-22T07:33:15.694Z,1.40
2018-03-22T07:35:47.487Z,4.53
2018-03-22T07:38:16.815Z,1.77
2018-03-22T07:40:45.179Z,2.40
2018-03-22T07:49:34.926Z,1.80
2018-03-22T07:55:11.561Z,2.10
2018-03-22T08:04:22.484Z,1.50
2018-03-22T08:10:09.839Z,1.73
2018-03-22T08:12:38.570Z,1.43
2018-03-22T08:15:10.139Z,2.03
2018-03-22T08:17:39.379Z,4.07
2018-03-22T08:20:11.177Z,4.53
2018-03-22T08:22:42.202Z,7.53
2018-03-22T08:25:11.479Z,8.13
2018-03-22T08:27:53.947Z,10.20
2018-03-22T08:30:22.313Z,11.23
2018-03-22T08:32:53.443Z,10.23
2018-03-22T08:35:23.038Z,9.20
2018-03-22T08:37:52.924Z,14.23
2018-03-22T08:40:21.711Z,8.90
2018-03-22T08:42:50.689Z,6.43
2018-03-22T08:45:19.061Z,7.83
2018-03-22T08:47:48.843Z,7.87
2018-03-22T08:50:18.714Z,6.87
2018-03-22T08:52:47.988Z,7.60
2018-03-22T08:55:16.322Z,8.80
2018-03-22T08:57:44.693Z,6.93
2018-03-22T09:00:14.909Z,6.57
2018-03-22T09:02:43.335Z,8.20
2018-03-22T09:05:11.759Z,11.30
2018-03-22T09:07:40.165Z,11.20
2018-03-22T09:10:23.190Z,9.03
2018-03-22T09:12:52.452Z,13.00
2018-03-22T09:15:21.127Z,15.53
2018-03-22T09:17:49.485Z,15.73
2018-03-22T09:20:17.938Z,14.63
2018-03-22T09:22:48.005Z,15.90
2018-03-22T09:25:16.387Z,13.97
2018-03-22T09:27:45.571Z,20.40
2018-03-22T09:30:13.955Z,20.90
2018-03-22T09:32:43.164Z,21.50
2018-03-22T09:35:12.505Z,19.07
2018-03-22T09:37:40.947Z,17.03
2018-03-22T09:40:09.326Z,13.13
2018-03-22T09:42:45.700Z,17.37
2018-03-22T09:45:14.323Z,15.97
2018-03-22T09:47:43.215Z,20.93
2018-03-22T09:50:12.411Z,11.67
2018-03-22T09:52:41.456Z,15.87
2018-03-22T09:55:13.611Z,12.03
2018-03-22T09:57:41.993Z,16.97
2018-03-22T10:00:11.478Z,13.70
2018-03-22T10:02:39.875Z,13.93
2018-03-22T10:05:11.377Z,9.40
2018-03-22T10:07:39.742Z,13.03
2018-03-22T10:10:09.502Z,10.47
2018-03-22T10:12:38.351Z,15.67
2018-03-22T10:18:01.896Z,10.17
2018-03-22T10:20:30.309Z,9.77
2018-03-22T10:22:59.214Z,10.03
2018-03-22T10:25:27.976Z,12.13
2018-03-22T10:27:56.989Z,10.07
2018-03-22T10:30:26.367Z,10.13
2018-03-22T10:32:55.369Z,8.00
2018-03-22T10:35:24.218Z,8.30
2018-03-22T10:37:53.336Z,6.67
2018-03-22T10:40:21.832Z,9.77
2018-03-22T10:42:50.342Z,7.50
2018-03-22T10:45:18.770Z,10.07
2018-03-22T10:47:48.048Z,8.90
2018-03-22T10:50:16.515Z,8.03
2018-03-22T10:52:44.927Z,8.37
2018-03-22T10:55:14.003Z,9.23
2018-03-22T10:57:47.803Z,6.00
2018-03-22T11:00:22.402Z,6.13
2018-03-22T11:02:54.695Z,11.37
2018-03-22T11:05:23.807Z,9.93
2018-03-22T11:08:03.862Z,5.77
2018-03-22T11:10:32.430Z,11.07
2018-03-22T11:13:00.756Z,6.60
2018-03-22T11:15:29.974Z,7.63
2018-03-22T11:17:59.058Z,7.63
2018-03-22T11:20:27.405Z,7.23
2018-03-22T11:22:55.837Z,6.23
2018-03-22T11:25:24.471Z,8.83
2018-03-22T11:27:54.314Z,6.47
2018-03-22T11:30:22.675Z,7.67
2018-03-22T11:32:50.999Z,4.97
2018-03-22T11:35:20.091Z,8.60
2018-03-22T11:37:50.043Z,5.83
2018-03-22T11:40:31.606Z,4.17
2018-03-22T11:43:00.195Z,4.93
2018-03-22T11:45:28.628Z,5.13
2018-03-22T11:47:58.058Z,5.13
2018-03-22T11:50:26.389Z,5.50
2018-03-22T11:52:56.371Z,4.57
2018-03-22T11:55:25.859Z,5.00
2018-03-22T11:57:54.198Z,4.77
2018-03-22T12:00:24.066Z,4.90
2018-03-22T12:02:56.624Z,5.10
2018-03-22T12:05:25.031Z,9.13
2018-03-22T12:07:56.358Z,4.53
2018-03-22T12:10:25.032Z,5.03
2018-03-22T12:13:01.204Z,3.57
2018-03-22T12:15:30.483Z,4.87
2018-03-22T12:18:00.911Z,5.67
2018-03-22T12:20:31.105Z,4.53
2018-03-22T12:25:53.951Z,3.93
2018-03-22T12:28:22.990Z,4.33
2018-03-22T12:30:51.298Z,3.67
2018-03-22T12:33:19.960Z,4.73
2018-03-22T12:35:55.612Z,5.17
2018-03-22T12:38:24.285Z,4.43
2018-03-22T12:40:52.735Z,4.20
2018-03-22T12:43:22.089Z,4.53
2018-03-22T12:45:51.124Z,5.27
2018-03-22T12:48:21.291Z,5.50
2018-03-22T12:50:49.616Z,4.13
2018-03-22T12:53:18.029Z,6.30
2018-03-22T12:55:46.763Z,2.77
2018-03-22T12:58:15.190Z,4.87
2018-03-22T13:00:45.485Z,5.27
2018-03-22T13:03:13.835Z,3.53
2018-03-22T13:05:43.164Z,5.07
2018-03-22T13:08:14.515Z,7.17
2018-03-22T13:13:44.243Z,6.77
2018-03-22T13:16:12.618Z,4.93
2018-03-22T13:18:42.811Z,5.20
2018-03-22T13:21:11.133Z,4.93
2018-03-22T13:23:45.303Z,10.93
2018-03-22T13:26:14.448Z,8.43
2018-03-22T13:28:44.530Z,4.97
2018-03-22T13:31:13.879Z,10.50
2018-03-22T13:33:42.305Z,6.53
2018-03-22T13:36:10.932Z,7.37
2018-03-22T13:38:40.114Z,6.23
2018-03-22T13:41:09.224Z,5.93
2018-03-22T13:43:38.591Z,5.70
2018-03-22T13:46:08.010Z,5.10
2018-03-22T13:48:41.296Z,4.90
2018-03-22T13:51:09.707Z,6.60
2018-03-22T13:53:38.261Z,5.70
2018-03-22T13:56:06.725Z,9.77
2018-03-22T13:58:35.099Z,6.83
2018-03-22T14:01:03.661Z,10.97
2018-03-22T14:03:32.545Z,5.80
2018-03-22T14:06:01.013Z,7.30
2018-03-22T14:08:30.262Z,3.17
2018-03-22T14:11:00.607Z,5.87
2018-03-22T14:13:29.895Z,8.10
2018-03-22T14:15:58.842Z,11.93
2018-03-22T14:18:27.182Z,8.33
2018-03-22T14:20:55.818Z,6.07
2018-03-22T14:23:25.308Z,5.93
2018-03-22T14:25:53.730Z,7.20
2018-03-22T14:28:22.486Z,30.17
2018-03-22T14:30:53.839Z,17.60
2018-03-22T14:33:22.238Z,24.37
2018-03-22T14:35:50.658Z,10.63
2018-03-22T14:38:32.569Z,7.97
2018-03-22T14:41:00.933Z,14.23
2018-03-22T14:43:29.302Z,10.00
2018-03-22T14:45:57.736Z,8.50
2018-03-22T14:48:26.080Z,5.10
2018-03-22T14:50:54.462Z,6.97
2018-03-22T14:53:22.814Z,3.60
2018-03-22T14:55:51.210Z,7.30
2018-03-22T14:58:19.600Z,4.27
2018-03-22T15:00:48.010Z,5.50
2018-03-22T15:03:18.587Z,3.43
2018-03-22T15:05:47.002Z,5.23
2018-03-22T15:08:15.472Z,2.87
2018-03-22T15:10:43.839Z,7.03
2018-03-22T15:13:12.256Z,5.87
2018-03-22T15:15:40.600Z,3.30
2018-03-22T15:18:08.916Z,2.93
2018-03-22T15:20:37.691Z,4.50
2018-03-22T15:23:06.852Z,4.07
2018-03-22T15:25:35.132Z,3.77
2018-03-22T15:28:04.556Z,3.13
2018-03-22T15:30:33.437Z,5.07
2018-03-22T15:33:01.766Z,3.63
2018-03-22T15:35:30.919Z,4.87
2018-03-22T15:37:59.415Z,2.93
2018-03-22T15:40:40.789Z,3.30
2018-03-22T15:43:09.577Z,2.37
2018-03-22T15:45:37.971Z,3.30
2018-03-22T15:48:06.360Z,4.17
2018-03-22T15:50:34.687Z,2.70
2018-03-22T15:53:03.893Z,3.03
2018-03-22T15:55:32.236Z,4.17
2018-03-22T15:58:01.491Z,6.33
2018-03-22T16:00:29.808Z,1.70
2018-03-22T16:02:58.468Z,3.43
2018-03-22T16:05:26.849Z,4.33
2018-03-22T16:07:56.044Z,2.33
2018-03-22T16:10:24.367Z,2.53
2018-03-22T16:12:52.772Z,2.33
2018-03-22T16:15:21.098Z,2.23
2018-03-22T16:17:50.166Z,1.47
2018-03-22T16:20:20.404Z,4.03
2018-03-22T16:23:03.223Z,3.33
2018-03-22T16:25:31.575Z,2.60
2018-03-22T16:27:59.964Z,2.73
2018-03-22T16:30:28.287Z,3.07
2018-03-22T16:32:57.555Z,2.60
2018-03-22T16:35:47.254Z,3.47
2018-03-22T16:38:15.596Z,1.60
2018-03-22T16:40:43.962Z,2.00
2018-03-22T16:43:12.299Z,2.10
2018-03-22T16:45:41.071Z,1.87
2018-03-22T16:48:16.324Z,2.50
2018-03-22T16:50:45.396Z,2.90
2018-03-22T16:53:14.522Z,2.47
2018-03-22T16:55:43.171Z,1.73
2018-03-22T16:58:11.518Z,2.63
2018-03-22T17:00:41.421Z,2.80
2018-03-22T17:03:11.497Z,2.20
2018-03-22T17:05:41.552Z,4.60
2018-03-22T17:08:11.636Z,1.50
2018-03-22T17:10:40.023Z,1.93
2018-03-22T17:13:08.774Z,3.00
2018-03-22T17:15:37.158Z,1.97
2018-03-22T17:18:06.480Z,2.23
2018-03-22T17:23:30.614Z,1.93
2018-03-22T17:25:58.935Z,2.67
2018-03-22T17:28:27.387Z,1.50
2018-03-22T17:30:55.727Z,2.20
2018-03-22T17:33:24.816Z,2.03
2018-03-22T17:35:54.006Z,1.80
2018-03-22T17:38:22.449Z,1.63
2018-03-22T17:40:50.776Z,2.07
2018-03-22T17:43:19.858Z,2.23
2018-03-22T17:45:48.223Z,1.83
2018-03-22T17:48:17.303Z,2.43
2018-03-22T17:50:47.497Z,8.70
2018-03-22T17:53:15.868Z,7.77
2018-03-22T17:55:45.361Z,4.57
2018-03-22T17:58:13.767Z,4.00
2018-03-22T18:00:44.225Z,6.07
2018-03-22T18:03:12.556Z,4.53
2018-03-22T18:05:41.625Z,4.03
2018-03-22T18:08:09.940Z,2.83
2018-03-22T18:10:39.149Z,2.83
2018-03-22T18:13:07.527Z,8.80
2018-03-22T18:15:35.995Z,13.90
2018-03-22T18:18:19.254Z,36.33
2018-03-22T18:20:48.515Z,36.83
2018-03-22T18:23:18.456Z,17.03
2018-03-22T18:25:46.847Z,22.30
2018-03-22T18:28:15.903Z,13.83
2018-03-22T18:30:46.542Z,12.70
2018-03-22T18:33:17.708Z,10.50
2018-03-22T18:35:46.408Z,7.30
2018-03-22T18:38:16.083Z,7.50
2018-03-22T18:40:44.458Z,7.43
2018-03-22T18:43:13.455Z,5.53
2018-03-22T18:45:41.794Z,5.73
2018-03-22T18:48:10.186Z,5.93
2018-03-22T18:50:38.517Z,5.07
2018-03-22T18:53:07.595Z,4.67
2018-03-22T18:55:36.940Z,3.50
2018-03-22T18:58:05.291Z,17.33
2018-03-22T19:00:34.366Z,5.87
2018-03-22T19:03:02.750Z,7.00
2018-03-22T19:05:31.086Z,5.77
2018-03-22T19:07:59.761Z,2.77
2018-03-22T19:10:32.246Z,2.47
2018-03-22T19:13:00.818Z,5.60
2018-03-22T19:15:29.163Z,3.03
2018-03-22T19:17:57.563Z,9.87
2018-03-22T19:20:26.897Z,4.47
2018-03-22T19:22:56.034Z,4.83
2018-03-22T19:25:24.829Z,3.93
2018-03-22T19:27:53.974Z,3.67
2018-03-22T19:30:22.297Z,3.17
2018-03-22T19:33:04.366Z,2.77
2018-03-22T19:35:32.676Z,3.17
2018-03-22T19:38:01.271Z,1.90
2018-03-22T19:40:29.767Z,2.10
2018-03-22T19:42:58.526Z,1.67
2018-03-22T19:45:27.366Z,3.20
2018-03-22T19:47:56.531Z,3.10
2018-03-22T19:50:24.898Z,2.43
2018-03-22T19:52:54.066Z,2.53
2018-03-22T19:55:22.391Z,1.30
2018-03-22T19:57:51.472Z,1.53
2018-03-22T20:00:20.167Z,1.80
2018-03-22T20:02:49.411Z,1.73
2018-03-22T20:05:17.713Z,1.73
2018-03-22T20:07:46.071Z,2.43
2018-03-22T20:10:14.411Z,1.30
2018-03-22T20:12:42.742Z,1.57
2018-03-22T20:15:11.971Z,2.47
2018-03-22T20:17:40.320Z,3.17
2018-03-22T20:20:09.010Z,3.17
2018-03-22T20:22:38.271Z,3.20
2018-03-22T20:25:08.207Z,1.80
2018-03-22T20:27:37.162Z,1.40
2018-03-22T20:30:05.934Z,2.13
2018-03-22T20:32:34.310Z,1.63
2018-03-22T20:35:03.585Z,2.57
2018-03-22T20:37:40.164Z,2.90
2018-03-22T20:40:08.499Z,1.53
2018-03-22T20:42:36.822Z,2.27
2018-03-22T20:45:05.183Z,1.63
2018-03-22T20:47:33.911Z,2.10
2018-03-22T20:50:21.542Z,2.07
2018-03-22T20:52:49.864Z,1.87
2018-03-22T20:55:18.982Z,1.70
2018-03-22T20:57:47.295Z,1.63
2018-03-22T21:00:15.622Z,2.03
2018-03-22T21:02:44.737Z,1.37
2018-03-22T21:05:13.327Z,2.73
2018-03-22T21:07:41.637Z,1.83
2018-03-22T21:10:10.010Z,2.13
2018-03-22T21:12:38.330Z,2.70
2018-03-22T21:15:07.600Z,2.70
2018-03-22T21:17:35.916Z,1.37
2018-03-22T21:20:05.028Z,1.80
2018-03-22T21:22:33.646Z,1.30
2018-03-22T21:25:02.863Z,2.07
2018-03-22T21:27:31.198Z,2.13
2018-03-22T21:29:59.541Z,1.30
2018-03-22T21:32:27.883Z,1.53
2018-03-22T21:34:56.225Z,1.30
2018-03-22T21:37:25.306Z,1.20
2018-03-22T21:39:53.661Z,3.40
2018-03-22T21:42:22.511Z,4.03
2018-03-22T21:44:51.145Z,2.57
2018-03-22T21:47:32.518Z,1.43
2018-03-22T21:50:04.979Z,1.20
2018-03-22T21:52:44.912Z,2.00
2018-03-22T21:55:14.212Z,4.60
2018-03-22T21:57:43.354Z,1.43
2018-03-22T22:00:12.622Z,1.93
2018-03-22T22:02:40.944Z,1.60
2018-03-22T22:05:09.281Z,3.37
2018-03-22T22:07:37.587Z,1.43
2018-03-22T22:10:06.672Z,1.73
2018-03-22T22:12:35.011Z,1.47
2018-03-22T22:15:03.389Z,2.87
2018-03-22T22:17:33.688Z,1.87
2018-03-22T22:20:02.012Z,1.37
2018-03-22T22:22:30.390Z,1.97
2018-03-22T22:24:59.400Z,1.30
2018-03-22T22:27:28.542Z,1.50
2018-03-22T22:29:56.871Z,2.60
2018-03-22T22:32:25.281Z,1.33
2018-03-22T22:34:53.658Z,1.50
2018-03-22T22:37:22.246Z,2.10
2018-03-22T22:39:50.627Z,1.47
2018-03-22T22:42:20.682Z,1.40
2018-03-22T22:44:49.030Z,3.10
2018-03-22T22:47:17.379Z,2.47
2018-03-22T22:49:45.706Z,1.93
2018-03-22T22:52:15.016Z,2.50
2018-03-22T22:54:51.000Z,1.40
2018-03-22T22:57:19.401Z,1.37
2018-03-22T22:59:47.715Z,1.30
2018-03-22T23:02:16.779Z,1.20
2018-03-22T23:04:45.954Z,1.53
2018-03-22T23:07:16.140Z,1.57
2018-03-22T23:09:44.455Z,1.27
2018-03-22T23:12:12.822Z,4.83
2018-03-22T23:14:41.219Z,1.40
2018-03-22T23:17:10.325Z,1.40
2018-03-22T23:19:38.667Z,1.30
2018-03-22T23:22:07.014Z,1.33
2018-03-22T23:24:35.672Z,1.37
2018-03-22T23:27:05.831Z,1.50
2018-03-22T23:29:35.655Z,1.33
2018-03-22T23:32:04.886Z,1.60
2018-03-22T23:34:33.208Z,1.20
2018-03-22T23:37:01.576Z,1.47
2018-03-22T23:39:29.891Z,1.20
2018-03-22T23:41:59.770Z,1.50
2018-03-22T23:44:28.080Z,1.63
2018-03-22T23:46:57.242Z,1.17
2018-03-22T23:49:25.642Z,2.27
2018-03-22T23:51:53.985Z,1.23
2018-03-22T23:54:23.112Z,0.87
2018-03-22T23:56:52.379Z,1.23
2018-03-22T23:59:20.690Z,1.10
